sensor_id;sensor_type;location;lat;lon;timestamp;P1;durP1;ratioP1;P2;durP2;ratioP2
5959;SDS011;3006;50.956;7.002;2022-12-29T00:00:59;2.40;;;1.93;;
5959;SDS011;3006;50.956;7.002;2022-12-29T00:03:28;3.27;;;2.00;;
5959;SDS011;3006;50.956;7.002;2022-12-29T00:05:57;3.00;;;2.43;;
5959;SDS011;3006;50.956;7.002;2022-12-29T00:08:25;2.33;;;1.30;;
5959;SDS011;3006;50.956;7.002;2022-12-29T00:11:07;1.27;;;1.17;;
5959;SDS011;3006;50.956;7.002;2022-12-29T00:13:36;1.73;;;1.20;;
5959;SDS011;3006;50.956;7.002;2022-12-29T00:16:22;1.20;;;1.10;;
5959;SDS011;3006;50.956;7.002;2022-12-29T00:18:51;1.77;;;1.50;;
5959;SDS011;3006;50.956;7.002;2022-12-29T00:21:20;1.10;;;1.00;;
5959;SDS011;3006;50.956;7.002;2022-12-29T00:24:08;2.90;;;1.80;;
5959;SDS011;3006;50.956;7.002;2022-12-29T00:26:58;2.90;;;1.40;;
5959;SDS011;3006;50.956;7.002;2022-12-29T00:29:55;1.47;;;1.37;;
5959;SDS011;3006;50.956;7.002;2022-12-29T00:32:43;2.33;;;2.10;;
5959;SDS011;3006;50.956;7.002;2022-12-29T00:35:29;2.47;;;2.20;;
5959;SDS011;3006;50.956;7.002;2022-12-29T00:38:01;2.80;;;2.17;;
5959;SDS011;3006;50.956;7.002;2022-12-29T00:40:48;4.13;;;1.77;;
5959;SDS011;3006;50.956;7.002;2022-12-29T00:43:35;1.40;;;1.30;;
5959;SDS011;3006;50.956;7.002;2022-12-29T00:46:21;1.60;;;1.50;;
5959;SDS011;3006;50.956;7.002;2022-12-29T00:48:49;1.20;;;1.10;;
5959;SDS011;3006;50.956;7.002;2022-12-29T00:51:46;2.30;;;1.50;;
5959;SDS011;3006;50.956;7.002;2022-12-29T00:54:14;1.43;;;1.33;;
5959;SDS011;3006;50.956;7.002;2022-12-29T00:56:45;3.00;;;1.30;;
5959;SDS011;3006;50.956;7.002;2022-12-29T00:59:17;1.77;;;1.03;;
5959;SDS011;3006;50.956;7.002;2022-12-29T01:01:46;1.63;;;1.30;;
5959;SDS011;3006;50.956;7.002;2022-12-29T01:04:14;1.10;;;1.00;;
5959;SDS011;3006;50.956;7.002;2022-12-29T01:06:43;5.47;;;4.53;;
5959;SDS011;3006;50.956;7.002;2022-12-29T01:09:14;3.40;;;2.30;;
5959;SDS011;3006;50.956;7.002;2022-12-29T01:12:00;4.47;;;2.63;;
5959;SDS011;3006;50.956;7.002;2022-12-29T01:14:30;1.50;;;1.10;;
5959;SDS011;3006;50.956;7.002;2022-12-29T01:16:58;1.23;;;1.13;;
5959;SDS011;3006;50.956;7.002;2022-12-29T01:19:26;1.60;;;1.30;;
5959;SDS011;3006;50.956;7.002;2022-12-29T01:21:55;1.40;;;1.10;;
5959;SDS011;3006;50.956;7.002;2022-12-29T01:24:23;1.47;;;1.20;;
5959;SDS011;3006;50.956;7.002;2022-12-29T01:26:52;1.30;;;1.13;;
5959;SDS011;3006;50.956;7.002;2022-12-29T01:29:21;1.30;;;1.00;;
5959;SDS011;3006;50.956;7.002;2022-12-29T01:31:50;1.10;;;1.00;;
5959;SDS011;3006;50.956;7.002;2022-12-29T01:34:18;1.10;;;1.00;;
5959;SDS011;3006;50.956;7.002;2022-12-29T01:36:46;1.10;;;1.00;;
5959;SDS011;3006;50.956;7.002;2022-12-29T01:39:15;0.83;;;0.83;;
5959;SDS011;3006;50.956;7.002;2022-12-29T01:41:43;1.00;;;0.90;;
5959;SDS011;3006;50.956;7.002;2022-12-29T01:47:18;0.93;;;0.80;;
5959;SDS011;3006;50.956;7.002;2022-12-29T01:49:53;0.80;;;0.70;;
5959;SDS011;3006;50.956;7.002;2022-12-29T01:52:24;1.00;;;0.80;;
5959;SDS011;3006;50.956;7.002;2022-12-29T01:54:56;1.00;;;0.80;;
5959;SDS011;3006;50.956;7.002;2022-12-29T01:57:27;0.80;;;0.80;;
5959;SDS011;3006;50.956;7.002;2022-12-29T02:00:00;0.90;;;0.90;;
5959;SDS011;3006;50.956;7.002;2022-12-29T02:02:39;1.30;;;1.00;;
5959;SDS011;3006;50.956;7.002;2022-12-29T02:05:10;1.30;;;1.00;;
5959;SDS011;3006;50.956;7.002;2022-12-29T02:07:45;1.43;;;1.33;;
5959;SDS011;3006;50.956;7.002;2022-12-29T02:10:16;3.40;;;2.67;;
5959;SDS011;3006;50.956;7.002;2022-12-29T02:12:46;2.17;;;1.30;;
5959;SDS011;3006;50.956;7.002;2022-12-29T02:15:14;2.00;;;1.20;;
5959;SDS011;3006;50.956;7.002;2022-12-29T02:17:53;1.17;;;1.00;;
5959;SDS011;3006;50.956;7.002;2022-12-29T02:20:47;1.63;;;1.00;;
5959;SDS011;3006;50.956;7.002;2022-12-29T02:23:33;1.83;;;1.30;;
5959;SDS011;3006;50.956;7.002;2022-12-29T02:29:13;1.20;;;0.93;;
5959;SDS011;3006;50.956;7.002;2022-12-29T02:31:56;1.87;;;0.97;;
5959;SDS011;3006;50.956;7.002;2022-12-29T02:34:31;1.30;;;1.07;;
5959;SDS011;3006;50.956;7.002;2022-12-29T02:37:11;1.03;;;0.90;;
5959;SDS011;3006;50.956;7.002;2022-12-29T02:39:47;1.30;;;1.20;;
5959;SDS011;3006;50.956;7.002;2022-12-29T02:42:21;3.73;;;1.43;;
5959;SDS011;3006;50.956;7.002;2022-12-29T02:44:55;1.77;;;1.20;;
5959;SDS011;3006;50.956;7.002;2022-12-29T02:47:35;1.97;;;1.20;;
5959;SDS011;3006;50.956;7.002;2022-12-29T02:50:07;1.77;;;1.27;;
5959;SDS011;3006;50.956;7.002;2022-12-29T02:52:45;1.30;;;1.20;;
5959;SDS011;3006;50.956;7.002;2022-12-29T02:55:17;2.10;;;1.60;;
5959;SDS011;3006;50.956;7.002;2022-12-29T02:57:44;2.13;;;1.30;;
5959;SDS011;3006;50.956;7.002;2022-12-29T03:00:13;1.20;;;1.07;;
5959;SDS011;3006;50.956;7.002;2022-12-29T03:02:58;1.87;;;1.00;;
5959;SDS011;3006;50.956;7.002;2022-12-29T03:05:44;1.23;;;1.10;;
5959;SDS011;3006;50.956;7.002;2022-12-29T03:08:32;1.60;;;1.17;;
5959;SDS011;3006;50.956;7.002;2022-12-29T03:11:06;1.93;;;1.00;;
5959;SDS011;3006;50.956;7.002;2022-12-29T03:13:59;1.73;;;1.30;;
5959;SDS011;3006;50.956;7.002;2022-12-29T03:16:51;1.73;;;1.23;;
5959;SDS011;3006;50.956;7.002;2022-12-29T03:19:28;2.40;;;1.13;;
5959;SDS011;3006;50.956;7.002;2022-12-29T03:22:00;1.93;;;1.50;;
5959;SDS011;3006;50.956;7.002;2022-12-29T03:24:54;1.10;;;0.90;;
5959;SDS011;3006;50.956;7.002;2022-12-29T03:27:27;3.20;;;1.10;;
5959;SDS011;3006;50.956;7.002;2022-12-29T03:30:00;1.40;;;1.10;;
5959;SDS011;3006;50.956;7.002;2022-12-29T03:32:31;1.80;;;1.17;;
5959;SDS011;3006;50.956;7.002;2022-12-29T03:35:04;1.87;;;1.60;;
5959;SDS011;3006;50.956;7.002;2022-12-29T03:37:35;1.10;;;0.97;;
5959;SDS011;3006;50.956;7.002;2022-12-29T03:40:07;2.13;;;1.07;;
5959;SDS011;3006;50.956;7.002;2022-12-29T03:42:36;2.13;;;1.10;;
5959;SDS011;3006;50.956;7.002;2022-12-29T03:45:07;1.80;;;1.50;;
5959;SDS011;3006;50.956;7.002;2022-12-29T03:47:37;4.50;;;1.30;;
5959;SDS011;3006;50.956;7.002;2022-12-29T03:50:07;1.57;;;1.10;;
5959;SDS011;3006;50.956;7.002;2022-12-29T03:52:39;0.80;;;0.80;;
5959;SDS011;3006;50.956;7.002;2022-12-29T03:55:08;1.60;;;1.10;;
5959;SDS011;3006;50.956;7.002;2022-12-29T03:57:38;2.03;;;1.00;;
5959;SDS011;3006;50.956;7.002;2022-12-29T04:00:11;1.20;;;0.70;;
5959;SDS011;3006;50.956;7.002;2022-12-29T04:02:40;2.00;;;1.10;;
5959;SDS011;3006;50.956;7.002;2022-12-29T04:05:15;2.00;;;0.80;;
5959;SDS011;3006;50.956;7.002;2022-12-29T04:07:43;1.47;;;1.23;;
5959;SDS011;3006;50.956;7.002;2022-12-29T04:10:12;3.87;;;1.10;;
5959;SDS011;3006;50.956;7.002;2022-12-29T04:12:40;2.23;;;1.00;;
5959;SDS011;3006;50.956;7.002;2022-12-29T04:15:09;1.00;;;0.90;;
5959;SDS011;3006;50.956;7.002;2022-12-29T04:17:37;1.20;;;1.10;;
5959;SDS011;3006;50.956;7.002;2022-12-29T04:20:06;1.10;;;0.87;;
5959;SDS011;3006;50.956;7.002;2022-12-29T04:23:08;2.90;;;0.90;;
5959;SDS011;3006;50.956;7.002;2022-12-29T04:25:37;3.70;;;1.30;;
5959;SDS011;3006;50.956;7.002;2022-12-29T04:28:07;2.63;;;1.07;;
5959;SDS011;3006;50.956;7.002;2022-12-29T04:30:45;1.00;;;0.73;;
5959;SDS011;3006;50.956;7.002;2022-12-29T04:33:18;1.10;;;0.90;;
5959;SDS011;3006;50.956;7.002;2022-12-29T04:35:47;2.17;;;0.97;;
5959;SDS011;3006;50.956;7.002;2022-12-29T04:38:17;1.57;;;1.00;;
5959;SDS011;3006;50.956;7.002;2022-12-29T04:40:46;1.57;;;0.87;;
5959;SDS011;3006;50.956;7.002;2022-12-29T04:43:16;1.10;;;1.00;;
5959;SDS011;3006;50.956;7.002;2022-12-29T04:46:04;1.10;;;0.90;;
5959;SDS011;3006;50.956;7.002;2022-12-29T04:49:08;2.87;;;1.13;;
5959;SDS011;3006;50.956;7.002;2022-12-29T04:51:50;1.00;;;0.90;;
5959;SDS011;3006;50.956;7.002;2022-12-29T04:54:20;1.00;;;0.90;;
5959;SDS011;3006;50.956;7.002;2022-12-29T04:56:55;1.30;;;0.90;;
5959;SDS011;3006;50.956;7.002;2022-12-29T04:59:23;1.10;;;1.00;;
5959;SDS011;3006;50.956;7.002;2022-12-29T05:01:56;1.00;;;0.90;;
5959;SDS011;3006;50.956;7.002;2022-12-29T05:04:24;1.27;;;0.97;;
5959;SDS011;3006;50.956;7.002;2022-12-29T05:06:52;1.60;;;0.90;;
5959;SDS011;3006;50.956;7.002;2022-12-29T05:09:22;2.40;;;0.90;;
5959;SDS011;3006;50.956;7.002;2022-12-29T05:11:51;2.80;;;1.20;;
5959;SDS011;3006;50.956;7.002;2022-12-29T05:14:19;2.20;;;1.00;;
5959;SDS011;3006;50.956;7.002;2022-12-29T05:16:47;1.73;;;0.83;;
5959;SDS011;3006;50.956;7.002;2022-12-29T05:19:15;1.30;;;0.90;;
5959;SDS011;3006;50.956;7.002;2022-12-29T05:21:44;2.20;;;0.97;;
5959;SDS011;3006;50.956;7.002;2022-12-29T05:24:13;1.00;;;0.90;;
5959;SDS011;3006;50.956;7.002;2022-12-29T05:26:43;1.40;;;0.90;;
5959;SDS011;3006;50.956;7.002;2022-12-29T05:29:31;2.00;;;1.03;;
5959;SDS011;3006;50.956;7.002;2022-12-29T05:31:59;2.03;;;1.10;;
5959;SDS011;3006;50.956;7.002;2022-12-29T05:34:28;1.30;;;0.70;;
5959;SDS011;3006;50.956;7.002;2022-12-29T05:36:56;2.00;;;0.97;;
5959;SDS011;3006;50.956;7.002;2022-12-29T05:39:24;2.70;;;1.17;;
5959;SDS011;3006;50.956;7.002;2022-12-29T05:41:58;1.53;;;0.80;;
5959;SDS011;3006;50.956;7.002;2022-12-29T05:44:46;1.73;;;0.90;;
5959;SDS011;3006;50.956;7.002;2022-12-29T05:47:36;1.63;;;0.83;;
5959;SDS011;3006;50.956;7.002;2022-12-29T05:50:28;1.47;;;0.93;;
5959;SDS011;3006;50.956;7.002;2022-12-29T05:53:10;1.30;;;0.90;;
5959;SDS011;3006;50.956;7.002;2022-12-29T05:55:40;3.13;;;1.10;;
5959;SDS011;3006;50.956;7.002;2022-12-29T05:58:16;0.80;;;0.73;;
5959;SDS011;3006;50.956;7.002;2022-12-29T06:00:46;1.00;;;0.87;;
5959;SDS011;3006;50.956;7.002;2022-12-29T06:03:15;0.80;;;0.80;;
5959;SDS011;3006;50.956;7.002;2022-12-29T06:05:44;2.73;;;0.70;;
5959;SDS011;3006;50.956;7.002;2022-12-29T06:08:14;1.43;;;0.80;;
5959;SDS011;3006;50.956;7.002;2022-12-29T06:10:43;1.23;;;0.80;;
5959;SDS011;3006;50.956;7.002;2022-12-29T06:13:11;4.70;;;0.80;;
5959;SDS011;3006;50.956;7.002;2022-12-29T06:15:43;0.83;;;0.70;;
5959;SDS011;3006;50.956;7.002;2022-12-29T06:18:12;1.30;;;1.00;;
5959;SDS011;3006;50.956;7.002;2022-12-29T06:20:45;1.50;;;1.27;;
5959;SDS011;3006;50.956;7.002;2022-12-29T06:23:16;1.10;;;1.00;;
5959;SDS011;3006;50.956;7.002;2022-12-29T06:25:46;2.27;;;1.00;;
5959;SDS011;3006;50.956;7.002;2022-12-29T06:28:14;1.33;;;1.03;;
5959;SDS011;3006;50.956;7.002;2022-12-29T06:30:45;0.90;;;0.80;;
5959;SDS011;3006;50.956;7.002;2022-12-29T06:33:13;2.27;;;0.70;;
5959;SDS011;3006;50.956;7.002;2022-12-29T06:35:42;4.00;;;0.77;;
5959;SDS011;3006;50.956;7.002;2022-12-29T06:38:13;0.90;;;0.70;;
5959;SDS011;3006;50.956;7.002;2022-12-29T06:40:41;1.40;;;0.70;;
5959;SDS011;3006;50.956;7.002;2022-12-29T06:43:29;0.80;;;0.70;;
5959;SDS011;3006;50.956;7.002;2022-12-29T06:46:08;1.30;;;0.80;;
5959;SDS011;3006;50.956;7.002;2022-12-29T06:48:36;1.77;;;1.00;;
5959;SDS011;3006;50.956;7.002;2022-12-29T06:51:04;0.80;;;0.80;;
5959;SDS011;3006;50.956;7.002;2022-12-29T06:53:32;1.60;;;1.00;;
5959;SDS011;3006;50.956;7.002;2022-12-29T06:56:00;1.03;;;0.90;;
5959;SDS011;3006;50.956;7.002;2022-12-29T06:58:28;2.37;;;1.00;;
5959;SDS011;3006;50.956;7.002;2022-12-29T07:00:56;1.20;;;0.90;;
5959;SDS011;3006;50.956;7.002;2022-12-29T07:03:27;1.20;;;0.83;;
5959;SDS011;3006;50.956;7.002;2022-12-29T07:05:55;1.00;;;0.80;;
5959;SDS011;3006;50.956;7.002;2022-12-29T07:08:24;1.57;;;1.00;;
5959;SDS011;3006;50.956;7.002;2022-12-29T07:10:52;0.80;;;0.70;;
5959;SDS011;3006;50.956;7.002;2022-12-29T07:13:20;1.43;;;1.00;;
5959;SDS011;3006;50.956;7.002;2022-12-29T07:15:48;1.37;;;0.80;;
5959;SDS011;3006;50.956;7.002;2022-12-29T07:18:16;1.70;;;0.90;;
5959;SDS011;3006;50.956;7.002;2022-12-29T07:20:45;4.30;;;1.10;;
5959;SDS011;3006;50.956;7.002;2022-12-29T07:23:14;2.70;;;0.93;;
5959;SDS011;3006;50.956;7.002;2022-12-29T07:25:41;2.07;;;0.80;;
5959;SDS011;3006;50.956;7.002;2022-12-29T07:28:09;1.53;;;0.80;;
5959;SDS011;3006;50.956;7.002;2022-12-29T07:30:37;1.30;;;0.97;;
5959;SDS011;3006;50.956;7.002;2022-12-29T07:33:05;3.53;;;1.00;;
5959;SDS011;3006;50.956;7.002;2022-12-29T07:35:34;3.50;;;0.80;;
5959;SDS011;3006;50.956;7.002;2022-12-29T07:38:03;2.10;;;1.00;;
5959;SDS011;3006;50.956;7.002;2022-12-29T07:40:32;1.33;;;0.90;;
5959;SDS011;3006;50.956;7.002;2022-12-29T07:43:00;4.27;;;0.90;;
5959;SDS011;3006;50.956;7.002;2022-12-29T07:45:34;1.50;;;0.90;;
5959;SDS011;3006;50.956;7.002;2022-12-29T07:48:07;3.33;;;1.10;;
5959;SDS011;3006;50.956;7.002;2022-12-29T07:50:35;2.80;;;1.50;;
5959;SDS011;3006;50.956;7.002;2022-12-29T07:53:05;3.23;;;1.03;;
5959;SDS011;3006;50.956;7.002;2022-12-29T07:55:33;2.77;;;0.97;;
5959;SDS011;3006;50.956;7.002;2022-12-29T07:58:01;4.00;;;1.80;;
5959;SDS011;3006;50.956;7.002;2022-12-29T08:00:29;2.50;;;1.10;;
5959;SDS011;3006;50.956;7.002;2022-12-29T08:02:57;6.13;;;1.10;;
5959;SDS011;3006;50.956;7.002;2022-12-29T08:05:25;2.47;;;1.03;;
5959;SDS011;3006;50.956;7.002;2022-12-29T08:07:54;4.80;;;1.20;;
5959;SDS011;3006;50.956;7.002;2022-12-29T08:10:24;2.53;;;0.90;;
5959;SDS011;3006;50.956;7.002;2022-12-29T08:12:52;3.90;;;1.10;;
5959;SDS011;3006;50.956;7.002;2022-12-29T08:15:20;4.00;;;1.27;;
5959;SDS011;3006;50.956;7.002;2022-12-29T08:17:57;7.07;;;1.37;;
5959;SDS011;3006;50.956;7.002;2022-12-29T08:20:25;3.23;;;1.13;;
5959;SDS011;3006;50.956;7.002;2022-12-29T08:22:53;7.07;;;1.37;;
5959;SDS011;3006;50.956;7.002;2022-12-29T08:25:21;9.33;;;1.87;;
5959;SDS011;3006;50.956;7.002;2022-12-29T08:27:51;4.03;;;1.30;;
5959;SDS011;3006;50.956;7.002;2022-12-29T08:30:19;6.10;;;1.20;;
5959;SDS011;3006;50.956;7.002;2022-12-29T08:32:47;7.30;;;1.63;;
5959;SDS011;3006;50.956;7.002;2022-12-29T08:35:15;3.57;;;1.20;;
5959;SDS011;3006;50.956;7.002;2022-12-29T08:37:43;4.73;;;1.23;;
5959;SDS011;3006;50.956;7.002;2022-12-29T08:40:11;4.67;;;1.43;;
5959;SDS011;3006;50.956;7.002;2022-12-29T08:42:40;3.47;;;1.63;;
5959;SDS011;3006;50.956;7.002;2022-12-29T08:45:09;6.53;;;1.67;;
5959;SDS011;3006;50.956;7.002;2022-12-29T08:47:38;3.90;;;1.10;;
5959;SDS011;3006;50.956;7.002;2022-12-29T08:50:06;2.73;;;1.10;;
5959;SDS011;3006;50.956;7.002;2022-12-29T08:52:34;3.73;;;1.40;;
5959;SDS011;3006;50.956;7.002;2022-12-29T08:55:03;2.77;;;1.20;;
5959;SDS011;3006;50.956;7.002;2022-12-29T08:57:31;4.70;;;1.20;;
5959;SDS011;3006;50.956;7.002;2022-12-29T09:00:20;3.53;;;1.33;;
5959;SDS011;3006;50.956;7.002;2022-12-29T09:02:50;4.03;;;1.40;;
5959;SDS011;3006;50.956;7.002;2022-12-29T09:05:19;2.83;;;1.20;;
5959;SDS011;3006;50.956;7.002;2022-12-29T09:07:47;3.83;;;1.87;;
5959;SDS011;3006;50.956;7.002;2022-12-29T09:10:15;6.40;;;2.27;;
5959;SDS011;3006;50.956;7.002;2022-12-29T09:12:43;7.50;;;1.37;;
5959;SDS011;3006;50.956;7.002;2022-12-29T09:15:11;4.63;;;1.23;;
5959;SDS011;3006;50.956;7.002;2022-12-29T09:17:41;4.97;;;1.40;;
5959;SDS011;3006;50.956;7.002;2022-12-29T09:20:10;6.23;;;1.00;;
5959;SDS011;3006;50.956;7.002;2022-12-29T09:22:39;2.40;;;1.70;;
5959;SDS011;3006;50.956;7.002;2022-12-29T09:25:08;7.53;;;1.63;;
5959;SDS011;3006;50.956;7.002;2022-12-29T09:27:38;4.67;;;1.23;;
5959;SDS011;3006;50.956;7.002;2022-12-29T09:30:07;6.80;;;1.60;;
5959;SDS011;3006;50.956;7.002;2022-12-29T09:32:37;3.80;;;1.30;;
5959;SDS011;3006;50.956;7.002;2022-12-29T09:35:12;3.57;;;1.10;;
5959;SDS011;3006;50.956;7.002;2022-12-29T09:37:40;4.30;;;1.77;;
5959;SDS011;3006;50.956;7.002;2022-12-29T09:40:10;2.63;;;1.13;;
5959;SDS011;3006;50.956;7.002;2022-12-29T09:43:01;3.67;;;1.33;;
5959;SDS011;3006;50.956;7.002;2022-12-29T09:45:45;4.73;;;1.33;;
5959;SDS011;3006;50.956;7.002;2022-12-29T09:48:20;3.63;;;1.30;;
5959;SDS011;3006;50.956;7.002;2022-12-29T09:50:54;3.13;;;1.17;;
5959;SDS011;3006;50.956;7.002;2022-12-29T09:53:26;6.00;;;1.67;;
5959;SDS011;3006;50.956;7.002;2022-12-29T09:55:58;7.17;;;1.73;;
5959;SDS011;3006;50.956;7.002;2022-12-29T09:58:30;4.07;;;1.63;;
5959;SDS011;3006;50.956;7.002;2022-12-29T10:01:04;3.93;;;1.40;;
5959;SDS011;3006;50.956;7.002;2022-12-29T10:03:36;3.57;;;1.57;;
5959;SDS011;3006;50.956;7.002;2022-12-29T10:06:15;3.33;;;1.10;;
5959;SDS011;3006;50.956;7.002;2022-12-29T10:08:49;4.40;;;1.47;;
5959;SDS011;3006;50.956;7.002;2022-12-29T10:11:29;8.70;;;1.40;;
5959;SDS011;3006;50.956;7.002;2022-12-29T10:14:14;5.20;;;1.20;;
5959;SDS011;3006;50.956;7.002;2022-12-29T10:16:53;4.00;;;1.57;;
5959;SDS011;3006;50.956;7.002;2022-12-29T10:19:33;4.27;;;2.00;;
5959;SDS011;3006;50.956;7.002;2022-12-29T10:22:17;4.70;;;1.37;;
5959;SDS011;3006;50.956;7.002;2022-12-29T10:24:56;6.00;;;2.27;;
5959;SDS011;3006;50.956;7.002;2022-12-29T10:27:25;5.10;;;1.40;;
5959;SDS011;3006;50.956;7.002;2022-12-29T10:29:54;5.33;;;1.53;;
5959;SDS011;3006;50.956;7.002;2022-12-29T10:32:26;4.70;;;1.70;;
5959;SDS011;3006;50.956;7.002;2022-12-29T10:35:00;7.53;;;2.30;;
5959;SDS011;3006;50.956;7.002;2022-12-29T10:37:38;2.90;;;1.50;;
5959;SDS011;3006;50.956;7.002;2022-12-29T10:40:13;3.80;;;1.23;;
5959;SDS011;3006;50.956;7.002;2022-12-29T10:42:46;3.50;;;1.40;;
5959;SDS011;3006;50.956;7.002;2022-12-29T10:45:19;4.37;;;1.43;;
5959;SDS011;3006;50.956;7.002;2022-12-29T10:47:53;3.20;;;1.30;;
5959;SDS011;3006;50.956;7.002;2022-12-29T10:50:24;7.93;;;1.53;;
5959;SDS011;3006;50.956;7.002;2022-12-29T10:52:54;5.67;;;1.67;;
5959;SDS011;3006;50.956;7.002;2022-12-29T10:55:26;7.73;;;2.43;;
5959;SDS011;3006;50.956;7.002;2022-12-29T10:57:59;2.90;;;1.30;;
5959;SDS011;3006;50.956;7.002;2022-12-29T11:00:32;4.43;;;1.17;;
5959;SDS011;3006;50.956;7.002;2022-12-29T11:03:10;6.80;;;1.50;;
5959;SDS011;3006;50.956;7.002;2022-12-29T11:05:57;4.37;;;2.00;;
5959;SDS011;3006;50.956;7.002;2022-12-29T11:08:33;5.63;;;1.43;;
5959;SDS011;3006;50.956;7.002;2022-12-29T11:11:05;6.30;;;2.30;;
5959;SDS011;3006;50.956;7.002;2022-12-29T11:13:38;5.53;;;1.77;;
5959;SDS011;3006;50.956;7.002;2022-12-29T11:16:14;8.30;;;1.40;;
5959;SDS011;3006;50.956;7.002;2022-12-29T11:18:53;6.27;;;1.40;;
5959;SDS011;3006;50.956;7.002;2022-12-29T11:21:26;4.57;;;1.60;;
5959;SDS011;3006;50.956;7.002;2022-12-29T11:24:00;4.20;;;1.80;;
5959;SDS011;3006;50.956;7.002;2022-12-29T11:26:30;4.47;;;1.53;;
5959;SDS011;3006;50.956;7.002;2022-12-29T11:29:05;3.80;;;1.40;;
5959;SDS011;3006;50.956;7.002;2022-12-29T11:31:55;5.47;;;1.40;;
5959;SDS011;3006;50.956;7.002;2022-12-29T11:34:25;4.23;;;1.70;;
5959;SDS011;3006;50.956;7.002;2022-12-29T11:37:00;4.03;;;1.60;;
5959;SDS011;3006;50.956;7.002;2022-12-29T11:39:33;4.50;;;1.33;;
5959;SDS011;3006;50.956;7.002;2022-12-29T11:42:05;6.03;;;2.50;;
5959;SDS011;3006;50.956;7.002;2022-12-29T11:44:42;8.23;;;2.07;;
5959;SDS011;3006;50.956;7.002;2022-12-29T11:47:12;5.23;;;1.70;;
5959;SDS011;3006;50.956;7.002;2022-12-29T11:49:51;8.30;;;1.57;;
5959;SDS011;3006;50.956;7.002;2022-12-29T11:52:22;9.57;;;1.90;;
5959;SDS011;3006;50.956;7.002;2022-12-29T11:54:58;7.60;;;2.70;;
5959;SDS011;3006;50.956;7.002;2022-12-29T11:57:28;6.43;;;1.37;;
5959;SDS011;3006;50.956;7.002;2022-12-29T11:59:59;6.20;;;1.60;;
5959;SDS011;3006;50.956;7.002;2022-12-29T12:02:39;8.70;;;1.83;;
5959;SDS011;3006;50.956;7.002;2022-12-29T12:05:18;15.47;;;2.73;;
5959;SDS011;3006;50.956;7.002;2022-12-29T12:07:52;7.80;;;1.80;;
5959;SDS011;3006;50.956;7.002;2022-12-29T12:10:26;3.67;;;1.33;;
5959;SDS011;3006;50.956;7.002;2022-12-29T12:13:02;6.87;;;1.47;;
5959;SDS011;3006;50.956;7.002;2022-12-29T12:15:35;8.63;;;2.80;;
5959;SDS011;3006;50.956;7.002;2022-12-29T12:18:14;8.57;;;1.53;;
5959;SDS011;3006;50.956;7.002;2022-12-29T12:20:47;14.83;;;2.30;;
5959;SDS011;3006;50.956;7.002;2022-12-29T12:23:24;6.33;;;2.03;;
5959;SDS011;3006;50.956;7.002;2022-12-29T12:26:02;4.27;;;1.60;;
5959;SDS011;3006;50.956;7.002;2022-12-29T12:28:40;8.27;;;1.80;;
5959;SDS011;3006;50.956;7.002;2022-12-29T12:31:17;3.93;;;1.67;;
5959;SDS011;3006;50.956;7.002;2022-12-29T12:33:53;4.50;;;1.70;;
5959;SDS011;3006;50.956;7.002;2022-12-29T12:36:39;5.50;;;2.40;;
5959;SDS011;3006;50.956;7.002;2022-12-29T12:39:26;7.27;;;3.00;;
5959;SDS011;3006;50.956;7.002;2022-12-29T12:42:03;6.10;;;1.63;;
5959;SDS011;3006;50.956;7.002;2022-12-29T12:44:43;7.17;;;1.80;;
5959;SDS011;3006;50.956;7.002;2022-12-29T12:47:25;6.30;;;1.73;;
5959;SDS011;3006;50.956;7.002;2022-12-29T12:50:07;8.83;;;2.07;;
5959;SDS011;3006;50.956;7.002;2022-12-29T12:52:57;11.30;;;2.20;;
5959;SDS011;3006;50.956;7.002;2022-12-29T12:55:43;5.90;;;1.70;;
5959;SDS011;3006;50.956;7.002;2022-12-29T12:58:23;6.97;;;2.80;;
5959;SDS011;3006;50.956;7.002;2022-12-29T13:01:03;7.27;;;2.00;;
5959;SDS011;3006;50.956;7.002;2022-12-29T13:03:50;5.93;;;2.20;;
5959;SDS011;3006;50.956;7.002;2022-12-29T13:06:37;4.57;;;1.90;;
5959;SDS011;3006;50.956;7.002;2022-12-29T13:09:16;3.63;;;1.83;;
5959;SDS011;3006;50.956;7.002;2022-12-29T13:11:59;9.03;;;3.03;;
5959;SDS011;3006;50.956;7.002;2022-12-29T13:14:41;7.67;;;1.80;;
5959;SDS011;3006;50.956;7.002;2022-12-29T13:17:18;6.80;;;2.03;;
5959;SDS011;3006;50.956;7.002;2022-12-29T13:19:54;6.40;;;1.70;;
5959;SDS011;3006;50.956;7.002;2022-12-29T13:22:30;4.40;;;1.30;;
5959;SDS011;3006;50.956;7.002;2022-12-29T13:25:13;7.03;;;1.73;;
5959;SDS011;3006;50.956;7.002;2022-12-29T13:27:54;5.70;;;2.33;;
5959;SDS011;3006;50.956;7.002;2022-12-29T13:30:30;6.43;;;1.57;;
5959;SDS011;3006;50.956;7.002;2022-12-29T13:33:04;7.50;;;1.77;;
5959;SDS011;3006;50.956;7.002;2022-12-29T13:35:50;8.37;;;1.80;;
5959;SDS011;3006;50.956;7.002;2022-12-29T13:38:24;6.67;;;1.70;;
5959;SDS011;3006;50.956;7.002;2022-12-29T13:40:59;5.13;;;2.10;;
5959;SDS011;3006;50.956;7.002;2022-12-29T13:43:31;9.80;;;1.73;;
5959;SDS011;3006;50.956;7.002;2022-12-29T13:46:04;5.53;;;1.63;;
5959;SDS011;3006;50.956;7.002;2022-12-29T13:48:37;10.40;;;1.93;;
5959;SDS011;3006;50.956;7.002;2022-12-29T13:51:11;4.30;;;1.50;;
5959;SDS011;3006;50.956;7.002;2022-12-29T13:53:51;5.27;;;1.47;;
5959;SDS011;3006;50.956;7.002;2022-12-29T13:56:31;8.60;;;1.73;;
5959;SDS011;3006;50.956;7.002;2022-12-29T13:59:04;6.40;;;1.93;;
5959;SDS011;3006;50.956;7.002;2022-12-29T14:01:40;11.13;;;2.67;;
5959;SDS011;3006;50.956;7.002;2022-12-29T14:04:14;6.27;;;1.93;;
5959;SDS011;3006;50.956;7.002;2022-12-29T14:06:57;5.70;;;1.63;;
5959;SDS011;3006;50.956;7.002;2022-12-29T14:09:40;4.03;;;1.50;;
5959;SDS011;3006;50.956;7.002;2022-12-29T14:15:20;10.40;;;2.40;;
5959;SDS011;3006;50.956;7.002;2022-12-29T14:18:03;5.23;;;2.07;;
5959;SDS011;3006;50.956;7.002;2022-12-29T14:20:38;9.10;;;2.70;;
5959;SDS011;3006;50.956;7.002;2022-12-29T14:23:25;8.40;;;2.57;;
5959;SDS011;3006;50.956;7.002;2022-12-29T14:25:56;6.53;;;2.00;;
5959;SDS011;3006;50.956;7.002;2022-12-29T14:28:27;8.37;;;2.40;;
5959;SDS011;3006;50.956;7.002;2022-12-29T14:30:57;5.20;;;1.53;;
5959;SDS011;3006;50.956;7.002;2022-12-29T14:33:29;8.50;;;2.10;;
5959;SDS011;3006;50.956;7.002;2022-12-29T14:38:52;5.63;;;1.73;;
5959;SDS011;3006;50.956;7.002;2022-12-29T14:41:24;7.87;;;2.13;;
5959;SDS011;3006;50.956;7.002;2022-12-29T14:43:57;8.40;;;1.40;;
5959;SDS011;3006;50.956;7.002;2022-12-29T14:46:43;3.50;;;1.47;;
5959;SDS011;3006;50.956;7.002;2022-12-29T14:49:16;6.70;;;1.70;;
5959;SDS011;3006;50.956;7.002;2022-12-29T14:51:47;5.43;;;1.40;;
5959;SDS011;3006;50.956;7.002;2022-12-29T14:57:14;6.50;;;1.43;;
5959;SDS011;3006;50.956;7.002;2022-12-29T14:59:48;6.60;;;1.30;;
5959;SDS011;3006;50.956;7.002;2022-12-29T15:02:23;4.50;;;1.60;;
5959;SDS011;3006;50.956;7.002;2022-12-29T15:05:00;4.10;;;1.40;;
5959;SDS011;3006;50.956;7.002;2022-12-29T15:07:30;6.67;;;1.87;;
5959;SDS011;3006;50.956;7.002;2022-12-29T15:10:03;7.17;;;2.87;;
5959;SDS011;3006;50.956;7.002;2022-12-29T15:12:36;9.90;;;3.10;;
5959;SDS011;3006;50.956;7.002;2022-12-29T15:15:16;5.27;;;1.73;;
5959;SDS011;3006;50.956;7.002;2022-12-29T15:17:46;8.97;;;2.03;;
5959;SDS011;3006;50.956;7.002;2022-12-29T15:20:20;7.27;;;2.40;;
5959;SDS011;3006;50.956;7.002;2022-12-29T15:22:53;5.60;;;2.67;;
5959;SDS011;3006;50.956;7.002;2022-12-29T15:25:23;5.33;;;2.53;;
5959;SDS011;3006;50.956;7.002;2022-12-29T15:27:54;5.80;;;2.17;;
5959;SDS011;3006;50.956;7.002;2022-12-29T15:30:25;6.93;;;2.03;;
5959;SDS011;3006;50.956;7.002;2022-12-29T15:32:53;10.73;;;2.00;;
5959;SDS011;3006;50.956;7.002;2022-12-29T15:35:24;5.93;;;1.90;;
5959;SDS011;3006;50.956;7.002;2022-12-29T15:37:56;8.40;;;2.43;;
5959;SDS011;3006;50.956;7.002;2022-12-29T15:40:25;5.90;;;1.97;;
5959;SDS011;3006;50.956;7.002;2022-12-29T15:45:57;4.27;;;1.50;;
5959;SDS011;3006;50.956;7.002;2022-12-29T15:48:28;4.83;;;2.07;;
5959;SDS011;3006;50.956;7.002;2022-12-29T15:50:59;4.17;;;1.63;;
5959;SDS011;3006;50.956;7.002;2022-12-29T15:53:29;9.07;;;2.03;;
5959;SDS011;3006;50.956;7.002;2022-12-29T15:55:59;8.10;;;2.13;;
5959;SDS011;3006;50.956;7.002;2022-12-29T15:58:30;5.13;;;2.60;;
5959;SDS011;3006;50.956;7.002;2022-12-29T16:00:58;13.00;;;2.10;;
5959;SDS011;3006;50.956;7.002;2022-12-29T16:03:29;7.70;;;1.60;;
5959;SDS011;3006;50.956;7.002;2022-12-29T16:06:08;6.27;;;1.90;;
5959;SDS011;3006;50.956;7.002;2022-12-29T16:08:38;6.93;;;2.03;;
5959;SDS011;3006;50.956;7.002;2022-12-29T16:11:14;5.13;;;1.93;;
5959;SDS011;3006;50.956;7.002;2022-12-29T16:13:49;6.10;;;1.60;;